Time;durP1;ratioP1;P1;durP2;ratioP2;P2;SDS_P1;SDS_P2;PMS_P1;PMS_P2;Temp;Humidity;BMP_temperature;BMP_pressure;BME280_temperature;BME280_humidity;BME280_pressure;Samples;Min_cycle;Max_cycle;Signal;HPM_P1;HPM_P2
2022/06/18 00:00:55;;;;;;;6.32;4.90;;;26.20;82.60;;;;;;6338777;22;20048;-77
2022/06/18 00:03:22;;;;;;;5.80;5.18;;;26.20;82.40;;;;;;6338915;22;20486;-77
2022/06/18 00:05:50;;;;;;;7.57;5.47;;;26.20;82.30;;;;;;6338271;22;20002;-77
2022/06/18 00:08:21;;;;;;;7.38;5.18;;;26.20;82.70;;;;;;6339866;22;20010;-76
2022/06/18 00:10:49;;;;;;;5.43;4.53;;;26.20;83.00;;;;;;6340358;22;20436;-76
2022/06/18 00:15:59;;;;;;;7.05;5.40;;;26.10;82.30;;;;;;6338545;22;20053;-77
2022/06/18 00:18:25;;;;;;;10.10;6.57;;;26.10;82.60;;;;;;6338498;22;20006;-75
2022/06/18 00:20:51;;;;;;;5.57;5.10;;;26.10;83.20;;;;;;6337175;22;20062;-76
2022/06/18 00:23:18;;;;;;;5.10;4.57;;;26.10;82.70;;;;;;6338675;22;19999;-75
2022/06/18 00:25:46;;;;;;;6.85;5.00;;;26.10;82.90;;;;;;6339315;22;20451;-78
2022/06/18 00:28:21;;;;;;;4.72;4.30;;;26.10;83.00;;;;;;6338548;22;20129;-78
2022/06/18 00:30:49;;;;;;;5.85;4.35;;;26.10;83.30;;;;;;6338598;22;20006;-79
2022/06/18 00:33:15;;;;;;;4.93;4.40;;;26.10;83.20;;;;;;6310935;22;20052;-77
2022/06/18 00:35:42;;;;;;;5.70;4.60;;;26.10;83.50;;;;;;6338815;22;20022;-79
2022/06/18 00:38:13;;;;;;;4.90;4.40;;;26.10;83.50;;;;;;6338142;22;20588;-79
2022/06/18 00:40:42;;;;;;;5.38;4.32;;;26.10;83.60;;;;;;6338108;22;19995;-79
2022/06/18 00:43:21;;;;;;;4.72;3.85;;;26.10;83.80;;;;;;6310385;22;20003;-79
2022/06/18 00:45:50;;;;;;;5.32;4.45;;;26.10;83.90;;;;;;6338340;22;20021;-79
2022/06/18 00:48:38;;;;;;;4.70;4.30;;;26.10;83.60;;;;;;6338310;22;20030;-80
2022/06/18 00:51:10;;;;;;;6.03;4.43;;;26.10;83.10;;;;;;6338404;22;20002;-79
2022/06/18 00:53:47;;;;;;;4.88;4.43;;;26.10;83.10;;;;;;6337879;22;20018;-79
2022/06/18 00:56:22;;;;;;;4.05;3.58;;;26.10;82.20;;;;;;6309983;22;20006;-79
2022/06/18 00:59:09;;;;;;;4.88;4.35;;;26.10;81.80;;;;;;6338238;22;20007;-80
2022/06/18 01:01:40;;;;;;;6.20;4.90;;;26.20;81.60;;;;;;6336960;22;20034;-80
2022/06/18 01:04:30;;;;;;;4.95;4.43;;;26.20;81.50;;;;;;6337981;22;20364;-80
2022/06/18 01:07:22;;;;;;;5.28;4.75;;;26.10;81.90;;;;;;6337321;22;20002;-80
2022/06/18 01:09:50;;;;;;;6.65;4.68;;;26.10;81.90;;;;;;6337854;22;20421;-80
2022/06/18 01:12:15;;;;;;;5.05;4.18;;;26.10;81.70;;;;;;6337519;22;20027;-80
2022/06/18 01:14:42;;;;;;;4.65;4.22;;;26.10;81.50;;;;;;6337822;22;20007;-80
2022/06/18 01:17:08;;;;;;;4.72;4.32;;;26.10;81.70;;;;;;6337707;22;19995;-80
2022/06/18 01:19:54;;;;;;;4.40;4.00;;;26.10;81.60;;;;;;6338277;22;19995;-80
2022/06/18 01:22:46;;;;;;;5.63;4.60;;;26.10;81.40;;;;;;6336554;22;19999;-80
2022/06/18 01:25:13;;;;;;;5.38;4.25;;;26.10;81.40;;;;;;6309258;22;20010;-80
2022/06/18 01:27:39;;;;;;;3.95;3.65;;;26.00;80.40;;;;;;6338305;22;20417;-80
2022/06/18 01:30:08;;;;;;;4.75;4.22;;;25.90;79.90;;;;;;6337738;22;20043;-80
2022/06/18 01:32:35;;;;;;;7.13;4.73;;;26.00;80.30;;;;;;6338456;22;20003;-80
2022/06/18 01:35:03;;;;;;;4.32;3.75;;;25.90;79.90;;;;;;6337396;22;20051;-82
2022/06/18 01:37:29;;;;;;;5.13;4.20;;;25.90;80.00;;;;;;6337665;22;20406;-82
2022/06/18 01:39:54;;;;;;;4.85;3.78;;;25.90;80.20;;;;;;6337398;22;19995;-81
2022/06/18 01:42:26;;;;;;;4.53;3.65;;;25.90;80.20;;;;;;6337180;22;20074;-80
2022/06/18 01:45:17;;;;;;;4.60;3.60;;;25.90;80.00;;;;;;6338027;22;20044;-81
2022/06/18 01:47:49;;;;;;;3.80;3.50;;;25.90;79.80;;;;;;6338088;22;20076;-80
2022/06/18 01:50:23;;;;;;;4.80;3.80;;;25.90;79.70;;;;;;6336820;22;20037;-80
2022/06/18 01:52:56;;;;;;;4.72;3.80;;;25.90;79.50;;;;;;6337635;22;20074;-81
2022/06/18 01:55:30;;;;;;;4.05;3.50;;;25.90;79.70;;;;;;6337891;22;20014;-80
2022/06/18 01:58:02;;;;;;;3.75;3.38;;;25.80;79.40;;;;;;6338113;22;20105;-79
2022/06/18 02:00:29;;;;;;;4.75;4.10;;;25.80;79.20;;;;;;6337463;22;20333;-79
2022/06/18 02:02:57;;;;;;;5.60;3.47;;;25.80;79.60;;;;;;6336810;22;20432;-79
2022/06/18 02:05:23;;;;;;;3.67;3.38;;;25.80;79.60;;;;;;6336948;22;20048;-79
2022/06/18 02:07:50;;;;;;;4.07;3.63;;;25.80;79.60;;;;;;6338170;22;20060;-78
2022/06/18 02:10:21;;;;;;;5.03;4.00;;;25.80;79.50;;;;;;6337497;22;19999;-80
2022/06/18 02:12:48;;;;;;;4.15;3.83;;;25.80;79.40;;;;;;6338112;22;20413;-79
2022/06/18 02:15:29;;;;;;;4.63;3.65;;;25.80;79.30;;;;;;6337742;22;20010;-79
2022/06/18 02:17:58;;;;;;;4.93;4.43;;;25.80;79.30;;;;;;6337405;22;20052;-79
2022/06/18 02:20:27;;;;;;;4.18;3.78;;;25.70;79.00;;;;;;6337551;22;20005;-80
2022/06/18 02:22:56;;;;;;;7.10;4.07;;;25.70;79.30;;;;;;6338133;22;20000;-79
2022/06/18 02:25:25;;;;;;;6.28;4.25;;;25.80;79.10;;;;;;6339792;22;20037;-79
2022/06/18 02:27:56;;;;;;;4.28;3.63;;;25.70;78.80;;;;;;6339934;22;20037;-78
2022/06/18 02:30:25;;;;;;;8.27;6.40;;;25.70;78.50;;;;;;6339148;22;20007;-79
2022/06/18 02:33:15;;;;;;;7.35;5.72;;;25.50;77.20;;;;;;6339288;22;20051;-78
2022/06/18 02:35:41;;;;;;;9.50;8.27;;;25.50;78.10;;;;;;6338951;22;20060;-79
2022/06/18 02:38:25;;;;;;;6.10;5.50;;;25.30;77.90;;;;;;6339374;22;20018;-78
2022/06/18 02:40:51;;;;;;;8.40;7.10;;;25.20;79.00;;;;;;6339601;22;20002;-78
2022/06/18 02:43:19;;;;;;;8.32;6.70;;;25.10;79.60;;;;;;6338933;22;19999;-79
2022/06/18 02:45:50;;;;;;;8.95;6.15;;;25.10;79.00;;;;;;6338716;22;19999;-78
2022/06/18 02:48:15;;;;;;;9.35;6.88;;;25.00;79.10;;;;;;6339030;22;20082;-80
2022/06/18 02:50:42;;;;;;;6.05;5.38;;;25.00;78.50;;;;;;6338669;22;20045;-79
2022/06/18 02:53:11;;;;;;;5.70;5.20;;;25.10;79.50;;;;;;6339158;22;20301;-79
2022/06/18 02:55:41;;;;;;;5.60;4.67;;;25.00;78.30;;;;;;6338809;22;20003;-83
2022/06/18 02:58:20;;;;;;;5.47;4.97;;;25.10;78.70;;;;;;6339190;22;19995;-80
2022/06/18 03:00:49;;;;;;;5.47;4.28;;;25.10;80.30;;;;;;6338509;22;20006;-80
2022/06/18 03:03:17;;;;;;;6.43;4.00;;;25.20;79.10;;;;;;6311728;22;20002;-79
2022/06/18 03:05:43;;;;;;;6.13;4.25;;;25.20;79.30;;;;;;6339265;22;19999;-80
2022/06/18 03:08:09;;;;;;;4.35;3.95;;;25.30;79.30;;;;;;6339528;22;20430;-79
2022/06/18 03:13:20;;;;;;;7.53;5.60;;;25.20;77.40;;;;;;6339998;22;20383;-80
2022/06/18 03:15:47;;;;;;;7.20;6.05;;;25.10;76.50;;;;;;6340673;22;20002;-79
2022/06/18 03:18:15;;;;;;;5.05;4.00;;;25.00;77.30;;;;;;6340208;22;20077;-79
2022/06/18 03:21:06;;;;;;;4.65;3.58;;;25.00;77.60;;;;;;6340467;22;19999;-79
2022/06/18 03:23:32;;;;;;;4.60;4.20;;;25.00;77.80;;;;;;6347120;22;20013;-79
2022/06/18 03:25:58;;;;;;;5.07;3.72;;;25.00;77.70;;;;;;6351775;22;20006;-79
2022/06/18 03:28:26;;;;;;;6.53;4.15;;;25.10;78.10;;;;;;6348913;22;19999;-80
2022/06/18 03:30:52;;;;;;;5.20;3.60;;;25.10;78.10;;;;;;6347202;22;20002;-79
2022/06/18 03:33:18;;;;;;;4.72;3.65;;;25.20;77.70;;;;;;6345902;22;20005;-78
2022/06/18 03:35:46;;;;;;;5.15;3.78;;;25.20;77.30;;;;;;6346481;22;19994;-78
2022/06/18 03:38:14;;;;;;;4.28;3.60;;;25.30;77.60;;;;;;6347190;22;20058;-80
2022/06/18 03:40:41;;;;;;;6.30;5.32;;;25.30;76.40;;;;;;6342856;22;19999;-78
2022/06/18 03:43:09;;;;;;;6.47;3.80;;;25.20;75.30;;;;;;6337979;22;20002;-79
2022/06/18 03:45:39;;;;;;;6.32;4.00;;;25.10;75.60;;;;;;6338166;22;20002;-79
2022/06/18 03:48:06;;;;;;;5.50;3.70;;;25.10;75.90;;;;;;6338081;22;20388;-80
2022/06/18 03:50:32;;;;;;;4.93;3.75;;;25.20;76.30;;;;;;6310805;22;20038;-78
2022/06/18 03:52:57;;;;;;;5.65;3.70;;;25.20;76.10;;;;;;6339642;22;20006;-78
2022/06/18 03:55:25;;;;;;;5.40;3.60;;;25.20;76.20;;;;;;6336457;22;20090;-77
2022/06/18 03:57:51;;;;;;;5.55;4.45;;;25.20;76.20;;;;;;6310487;22;19998;-79
2022/06/18 04:00:20;;;;;;;4.97;3.85;;;25.20;75.20;;;;;;6337547;22;20006;-80
2022/06/18 04:02:46;;;;;;;5.43;3.42;;;25.20;75.90;;;;;;6338206;22;20006;-79
2022/06/18 04:05:12;;;;;;;4.68;3.38;;;25.20;75.40;;;;;;6338038;22;20073;-80
2022/06/18 04:07:40;;;;;;;5.53;3.70;;;25.20;75.60;;;;;;6338283;22;20022;-80
2022/06/18 04:10:07;;;;;;;4.07;3.50;;;25.30;76.40;;;;;;6335904;22;20010;-80
2022/06/18 04:12:33;;;;;;;5.88;3.80;;;25.30;75.80;;;;;;6337894;22;20010;-80
2022/06/18 04:14:59;;;;;;;5.18;3.85;;;25.30;75.00;;;;;;6337895;22;19999;-80
2022/06/18 04:17:25;;;;;;;5.07;3.75;;;25.30;75.60;;;;;;6338605;22;20002;-79
2022/06/18 04:19:51;;;;;;;4.72;3.97;;;25.30;75.50;;;;;;6337003;22;20005;-78
2022/06/18 04:22:17;;;;;;;4.15;3.42;;;25.30;75.30;;;;;;6309861;22;20003;-77
2022/06/18 04:24:43;;;;;;;5.07;3.75;;;25.30;75.40;;;;;;6338132;22;20007;-81
2022/06/18 04:27:08;;;;;;;6.68;3.95;;;25.30;75.20;;;;;;6337040;22;20375;-80
2022/06/18 04:29:35;;;;;;;3.88;3.40;;;25.30;75.10;;;;;;6337162;22;20009;-81
2022/06/18 04:32:00;;;;;;;4.72;3.38;;;25.30;74.00;;;;;;6337863;22;19999;-78
2022/06/18 04:34:27;;;;;;;4.28;2.88;;;25.30;74.10;;;;;;6336159;22;20275;-80
2022/06/18 04:36:53;;;;;;;4.53;3.20;;;25.30;74.20;;;;;;6336581;22;19995;-80
2022/06/18 04:39:19;;;;;;;4.00;3.20;;;25.30;73.70;;;;;;6335480;22;20003;-81
2022/06/18 04:41:46;;;;;;;4.97;3.72;;;25.30;73.50;;;;;;6337616;22;19999;-81
2022/06/18 04:44:13;;;;;;;3.63;3.25;;;25.30;73.70;;;;;;6310336;22;20068;-80
2022/06/18 04:46:39;;;;;;;4.68;3.35;;;25.30;73.50;;;;;;6337769;22;19998;-81
2022/06/18 04:49:04;;;;;;;3.75;3.22;;;25.30;74.10;;;;;;6337514;22;20015;-81
2022/06/18 04:51:30;;;;;;;3.40;3.08;;;25.30;73.20;;;;;;6337822;22;20013;-80
2022/06/18 04:53:56;;;;;;;3.17;2.85;;;25.30;73.20;;;;;;6338221;22;20095;-81
2022/06/18 04:56:22;;;;;;;3.97;3.00;;;25.30;72.40;;;;;;6338771;22;19995;-81
2022/06/18 04:58:47;;;;;;;2.90;2.70;;;25.30;73.00;;;;;;6339277;22;20021;-82
2022/06/18 05:01:17;;;;;;;7.25;3.35;;;25.30;73.00;;;;;;6338802;22;20343;-82
2022/06/18 05:03:42;;;;;;;10.63;3.00;;;25.30;72.40;;;;;;6338367;22;20560;-81
2022/06/18 05:06:08;;;;;;;3.70;2.75;;;25.30;72.00;;;;;;6338626;22;20002;-82
2022/06/18 05:08:34;;;;;;;3.47;3.05;;;25.40;72.00;;;;;;6338734;22;20003;-81
2022/06/18 05:10:59;;;;;;;3.70;3.20;;;25.30;72.30;;;;;;6338033;22;20006;-80
2022/06/18 05:13:25;;;;;;;3.22;2.90;;;25.30;72.70;;;;;;6338406;22;20002;-80
2022/06/18 05:15:54;;;;;;;6.55;3.30;;;25.30;72.30;;;;;;6338263;22;19994;-80
2022/06/18 05:18:21;;;;;;;3.42;3.13;;;25.30;72.90;;;;;;6337567;22;19995;-80
2022/06/18 05:20:49;;;;;;;3.90;3.42;;;25.40;73.00;;;;;;6338830;22;20010;-79
2022/06/18 05:23:15;;;;;;;5.50;3.45;;;25.40;73.10;;;;;;6338656;22;20294;-79
2022/06/18 05:25:42;;;;;;;5.07;4.20;;;25.40;72.50;;;;;;6338161;22;20006;-80
2022/06/18 05:28:09;;;;;;;5.22;3.75;;;25.40;71.30;;;;;;6338354;22;20030;-80
2022/06/18 05:30:35;;;;;;;9.05;5.47;;;25.30;71.70;;;;;;6337814;22;19995;-80
2022/06/18 05:33:00;;;;;;;4.70;3.80;;;25.30;72.20;;;;;;6338630;22;20003;-80
2022/06/18 05:35:26;;;;;;;4.78;3.55;;;25.30;72.60;;;;;;6338192;22;20082;-80
2022/06/18 05:37:52;;;;;;;5.93;4.43;;;25.40;73.30;;;;;;6338310;22;20033;-80
2022/06/18 05:40:19;;;;;;;4.57;3.65;;;25.40;73.10;;;;;;6338725;22;20373;-80
2022/06/18 05:42:45;;;;;;;3.70;3.40;;;25.40;73.00;;;;;;6338290;22;19999;-80
2022/06/18 05:45:11;;;;;;;4.05;3.65;;;25.50;73.00;;;;;;6338341;22;20484;-80
2022/06/18 05:47:37;;;;;;;4.72;3.75;;;25.50;73.10;;;;;;6338499;22;20009;-80
2022/06/18 05:50:06;;;;;;;4.47;3.90;;;25.50;73.00;;;;;;6338173;22;20007;-81
2022/06/18 05:52:31;;;;;;;3.95;3.55;;;25.50;73.80;;;;;;6338860;22;20003;-81
2022/06/18 05:54:57;;;;;;;5.72;3.95;;;25.50;73.60;;;;;;6338264;22;20111;-81
2022/06/18 05:57:23;;;;;;;7.72;4.35;;;25.60;73.80;;;;;;6337868;22;20067;-80
2022/06/18 05:59:50;;;;;;;4.07;3.28;;;25.60;72.80;;;;;;6338158;22;20397;-80
2022/06/18 06:02:19;;;;;;;4.78;3.72;;;25.60;73.10;;;;;;6312329;22;19999;-82
2022/06/18 06:04:46;;;;;;;4.60;3.23;;;25.60;73.80;;;;;;6340710;22;20006;-79
2022/06/18 06:07:20;;;;;;;4.43;3.30;;;25.60;73.10;;;;;;6340563;22;20533;-79
2022/06/18 06:12:31;;;;;;;4.30;3.78;;;25.60;73.80;;;;;;6340169;22;20017;-79
2022/06/18 06:14:56;;;;;;;5.35;3.53;;;25.60;74.00;;;;;;6339810;22;20082;-79
2022/06/18 06:17:25;;;;;;;4.25;3.63;;;25.70;73.40;;;;;;6339348;22;20006;-79
2022/06/18 06:19:51;;;;;;;4.50;3.40;;;25.70;73.60;;;;;;6339978;22;20409;-79
2022/06/18 06:22:16;;;;;;;3.17;2.88;;;25.80;73.60;;;;;;6339349;22;20033;-80
2022/06/18 06:24:42;;;;;;;4.47;3.50;;;25.90;73.90;;;;;;6339878;22;20003;-80
2022/06/18 06:27:10;;;;;;;6.13;4.05;;;25.90;73.70;;;;;;6339580;22;20413;-80
2022/06/18 06:29:36;;;;;;;3.97;2.95;;;25.90;73.80;;;;;;6338877;22;20305;-80
2022/06/18 06:32:02;;;;;;;4.00;3.28;;;25.90;73.70;;;;;;6339017;22;20074;-81
2022/06/18 06:34:28;;;;;;;4.43;3.30;;;26.00;74.00;;;;;;6339608;22;20017;-80
2022/06/18 06:36:56;;;;;;;5.63;3.53;;;25.90;73.80;;;;;;6340366;22;20065;-78
2022/06/18 06:39:22;;;;;;;4.55;4.10;;;25.90;73.80;;;;;;6339952;22;20440;-79
2022/06/18 06:41:48;;;;;;;6.45;3.63;;;25.90;74.40;;;;;;6338805;22;20405;-80
2022/06/18 06:44:13;;;;;;;7.05;3.78;;;25.80;73.80;;;;;;6339991;22;20121;-79
2022/06/18 06:46:39;;;;;;;3.83;3.00;;;25.80;74.00;;;;;;6338469;22;20030;-81
2022/06/18 06:49:05;;;;;;;4.03;2.92;;;25.80;74.30;;;;;;6338915;22;20010;-81
2022/06/18 06:51:34;;;;;;;2.72;2.53;;;25.90;74.40;;;;;;6338519;22;20063;-81
2022/06/18 06:54:00;;;;;;;4.05;3.05;;;26.00;74.20;;;;;;6339505;22;20375;-81
2022/06/18 06:59:11;;;;;;;3.85;3.20;;;26.20;73.90;;;;;;6340313;22;20009;-82
2022/06/18 07:01:37;;;;;;;5.13;2.97;;;26.20;74.20;;;;;;6339615;22;20006;-81
2022/06/18 07:04:05;;;;;;;3.95;3.38;;;26.30;74.20;;;;;;6340266;22;20010;-81
2022/06/18 07:06:31;;;;;;;4.05;3.08;;;26.30;74.30;;;;;;6340026;22;20070;-81
2022/06/18 07:08:56;;;;;;;3.22;2.92;;;26.40;73.80;;;;;;6339669;22;20078;-81
2022/06/18 07:11:23;;;;;;;4.95;3.22;;;26.40;73.50;;;;;;6339692;22;20048;-81
2022/06/18 07:13:48;;;;;;;3.50;3.20;;;26.50;73.60;;;;;;6337535;22;20003;-81
2022/06/18 07:16:15;;;;;;;3.67;3.17;;;26.50;73.50;;;;;;6339220;22;20006;-81
2022/06/18 07:18:41;;;;;;;5.90;3.08;;;26.60;73.40;;;;;;6339375;22;20069;-82
2022/06/18 07:21:12;;;;;;;5.47;4.95;;;26.60;73.20;;;;;;6339489;22;20001;-83
2022/06/18 07:23:37;;;;;;;18.08;16.27;;;26.70;73.30;;;;;;6339318;22;20306;-82
2022/06/18 07:26:03;;;;;;;47.00;42.30;;;26.70;73.20;;;;;;6339525;22;19999;-83
2022/06/18 07:28:29;;;;;;;18.52;16.83;;;26.70;73.50;;;;;;6339583;22;20067;-83
2022/06/18 07:30:55;;;;;;;7.43;6.82;;;26.80;73.10;;;;;;6339065;22;20360;-83
2022/06/18 07:33:25;;;;;;;4.63;4.13;;;26.80;72.60;;;;;;6340027;22;19999;-83
2022/06/18 07:35:51;;;;;;;3.50;3.10;;;26.80;72.60;;;;;;6312027;22;20095;-84
2022/06/18 07:38:17;;;;;;;4.13;3.13;;;26.90;72.70;;;;;;6339836;22;19998;-83
2022/06/18 07:40:49;;;;;;;2.78;2.55;;;26.90;72.60;;;;;;6311676;22;20297;-81
2022/06/18 07:43:20;;;;;;;5.05;2.67;;;27.00;72.40;;;;;;6333333;22;20121;-81
2022/06/18 07:45:46;;;;;;;2.92;2.28;;;27.10;72.70;;;;;;6337821;22;20006;-84
2022/06/18 07:48:13;;;;;;;3.38;2.67;;;27.20;72.90;;;;;;6337658;22;20013;-84
2022/06/18 07:50:43;;;;;;;3.05;2.20;;;27.20;70.10;;;;;;6310716;22;20125;-84
2022/06/18 07:53:19;;;;;;;;;;;27.30;70.70;;;;;;6311629;22;20005;-84
2022/06/18 07:55:45;;;;;;;2.58;2.08;;;27.30;69.30;;;;;;6337222;22;19933;-85
2022/06/18 07:58:12;;;;;;;5.18;2.33;;;27.40;68.60;;;;;;6338421;22;20488;-85
2022/06/18 08:00:42;;;;;;;3.42;2.10;;;27.40;67.30;;;;;;6337309;22;20005;-84
2022/06/18 08:03:10;;;;;;;2.10;1.90;;;27.50;67.10;;;;;;6338177;22;20002;-85
2022/06/18 08:05:37;;;;;;;2.78;2.50;;;27.50;67.10;;;;;;6310317;22;20332;-84
2022/06/18 08:08:03;;;;;;;3.55;2.30;;;27.50;66.30;;;;;;6338357;22;20018;-85
2022/06/18 08:10:31;;;;;;;3.25;2.35;;;27.60;67.40;;;;;;6338552;22;19999;-84
2022/06/18 08:12:57;;;;;;;2.75;1.88;;;27.60;67.50;;;;;;6338227;22;20006;-84
2022/06/18 08:15:23;;;;;;;2.60;2.20;;;27.70;67.50;;;;;;6337189;22;20002;-82
2022/06/18 08:17:49;;;;;;;6.13;2.38;;;27.70;65.10;;;;;;6310442;22;20003;-82
2022/06/18 08:20:15;;;;;;;2.30;2.10;;;27.80;65.40;;;;;;6337831;22;19999;-82
2022/06/18 08:22:43;;;;;;;3.17;1.98;;;27.80;64.70;;;;;;6337697;22;19999;-81
2022/06/18 08:25:11;;;;;;;3.30;2.08;;;27.80;63.40;;;;;;6338687;22;20006;-82
2022/06/18 08:27:37;;;;;;;2.15;1.90;;;27.90;62.60;;;;;;6338621;22;20003;-81
2022/06/18 08:30:05;;;;;;;3.72;2.10;;;27.90;61.70;;;;;;6338600;22;20476;-82
2022/06/18 08:32:31;;;;;;;4.32;2.28;;;28.00;62.30;;;;;;6339141;22;20003;-82
2022/06/18 08:34:57;;;;;;;4.30;2.30;;;28.00;62.00;;;;;;6338921;22;20003;-82
2022/06/18 08:37:23;;;;;;;5.30;2.40;;;28.00;62.10;;;;;;6311107;22;20033;-84
2022/06/18 08:39:49;;;;;;;3.17;2.00;;;28.00;62.10;;;;;;6338809;22;20355;-85
2022/06/18 08:42:49;;;;;;;3.33;2.13;;;28.00;62.20;;;;;;6339066;22;20290;-84
2022/06/18 08:45:24;;;;;;;;;;;28.10;61.70;;;;;;6288898;22;20003;-84
2022/06/18 08:48:10;;;;;;;3.15;2.10;;;28.10;62.50;;;;;;6339247;22;19981;-84
2022/06/18 08:50:48;;;;;;;4.10;2.35;;;28.20;61.60;;;;;;6337925;22;20037;-86
2022/06/18 08:53:44;;;;;;;2.88;1.88;;;28.20;61.80;;;;;;6339230;22;20339;-83
2022/06/18 08:56:38;;;;;;;3.55;2.78;;;28.20;62.30;;;;;;6339111;22;20011;-84
2022/06/18 08:59:34;;;;;;;2.60;1.83;;;28.20;60.20;;;;;;6339005;22;19999;-85
2022/06/18 09:02:37;;;;;;;3.50;2.13;;;28.20;60.40;;;;;;6339035;22;20047;-85
2022/06/18 09:05:09;;;;;;;2.53;2.20;;;28.30;59.40;;;;;;6338557;22;19994;-84
2022/06/18 09:07:46;;;;;;;4.25;2.50;;;28.40;61.30;;;;;;6310141;22;19999;-85
2022/06/18 09:10:35;;;;;;;2.90;2.20;;;28.40;60.50;;;;;;6332108;22;20148;-84
2022/06/18 09:13:08;;;;;;;2.40;2.20;;;28.50;59.80;;;;;;6310796;22;19999;-84
2022/06/18 09:15:40;;;;;;;2.80;2.20;;;28.50;60.60;;;;;;6338625;22;20010;-84
2022/06/18 09:18:18;;;;;;;2.22;1.77;;;28.60;60.00;;;;;;6338135;22;19999;-84
2022/06/18 09:20:51;;;;;;;2.20;2.00;;;28.70;59.60;;;;;;6339714;22;20002;-84
2022/06/18 09:23:26;;;;;;;2.38;1.80;;;28.70;59.00;;;;;;6342501;22;20009;-84
2022/06/18 09:25:54;;;;;;;2.28;2.05;;;28.80;58.60;;;;;;6341595;22;19999;-84
2022/06/18 09:28:27;;;;;;;3.50;2.20;;;28.90;58.90;;;;;;6341872;22;20034;-84
2022/06/18 09:31:02;;;;;;;2.35;2.00;;;28.90;57.60;;;;;;6343549;22;20003;-84
2022/06/18 09:33:55;;;;;;;4.28;2.80;;;29.00;57.90;;;;;;6348137;22;20003;-84
2022/06/18 09:36:44;;;;;;;3.47;2.70;;;28.90;55.40;;;;;;6333418;22;20062;-84
2022/06/18 09:39:22;;;;;;;2.50;2.20;;;28.90;56.80;;;;;;6327058;22;20080;-84
2022/06/18 09:42:03;;;;;;;2.40;1.92;;;28.90;56.90;;;;;;6313115;22;20003;-84
2022/06/18 09:44:44;;;;;;;3.45;2.20;;;29.00;57.70;;;;;;6340043;22;20326;-84
2022/06/18 09:47:24;;;;;;;5.80;2.33;;;29.10;57.70;;;;;;6344821;22;20123;-84
2022/06/18 09:49:49;;;;;;;6.25;2.15;;;29.20;57.30;;;;;;6340695;22;20046;-84
2022/06/18 09:52:38;;;;;;;3.33;2.20;;;29.30;57.30;;;;;;6340371;22;20002;-81
2022/06/18 09:55:17;;;;;;;2.42;1.70;;;29.30;56.00;;;;;;6339410;22;20003;-82
2022/06/18 09:57:48;;;;;;;4.10;1.98;;;29.30;56.20;;;;;;6340203;22;19999;-81
2022/06/18 10:00:18;;;;;;;2.70;1.70;;;29.40;56.20;;;;;;6340228;22;19999;-83
2022/06/18 10:02:46;;;;;;;;;;;29.50;56.00;;;;;;6340768;22;20007;-81
2022/06/18 10:08:11;;;;;;;3.10;2.15;;;29.60;56.20;;;;;;6339641;22;20072;-82
2022/06/18 10:10:46;;;;;;;3.55;2.00;;;29.70;55.90;;;;;;6338999;22;20025;-82
2022/06/18 10:13:19;;;;;;;3.88;2.03;;;29.80;55.60;;;;;;6332280;22;20003;-83
2022/06/18 10:15:46;;;;;;;3.15;1.92;;;29.80;54.60;;;;;;6330750;22;20074;-83
2022/06/18 10:18:29;;;;;;;5.07;1.95;;;29.90;55.20;;;;;;6336068;22;20009;-80
2022/06/18 10:21:24;;;;;;;3.00;1.67;;;30.00;53.00;;;;;;6335787;22;20455;-82
2022/06/18 10:24:12;;;;;;;3.30;2.10;;;30.00;54.50;;;;;;6334785;22;20007;-82
2022/06/18 10:26:50;;;;;;;6.47;1.80;;;30.10;53.00;;;;;;6337002;22;20017;-82
2022/06/18 10:29:42;;;;;;;1.80;1.50;;;30.20;54.00;;;;;;6337232;22;20002;-81
2022/06/18 10:32:23;;;;;;;2.13;1.67;;;30.20;53.90;;;;;;6336376;22;20006;-82
2022/06/18 10:34:55;;;;;;;1.95;1.60;;;30.30;54.30;;;;;;6336254;22;20009;-82
2022/06/18 10:37:50;;;;;;;4.22;1.90;;;30.50;54.10;;;;;;6335153;22;20002;-83
2022/06/18 10:40:50;;;;;;;2.38;1.73;;;30.60;53.80;;;;;;6336168;22;20010;-81
2022/06/18 10:43:18;;;;;;;1.80;1.40;;;30.70;52.30;;;;;;6336427;22;20017;-81
2022/06/18 10:46:12;;;;;;;1.95;1.55;;;30.70;52.90;;;;;;6335653;22;20034;-81
2022/06/18 10:48:46;;;;;;;2.28;1.58;;;30.80;52.20;;;;;;6335670;22;20095;-82
2022/06/18 10:51:18;;;;;;;1.90;1.45;;;30.90;51.70;;;;;;6335548;22;20429;-82
2022/06/18 10:53:56;;;;;;;2.03;1.60;;;30.90;52.00;;;;;;6336386;22;20006;-82
2022/06/18 10:56:31;;;;;;;1.67;1.42;;;31.00;51.80;;;;;;6336679;22;20030;-83
2022/06/18 10:59:00;;;;;;;3.53;2.08;;;31.10;52.40;;;;;;6336962;22;20032;-83
2022/06/18 11:01:44;;;;;;;2.83;1.70;;;31.20;50.10;;;;;;6336142;22;19995;-82
2022/06/18 11:04:23;;;;;;;1.38;1.27;;;31.30;50.90;;;;;;6307586;22;20003;-82
2022/06/18 11:06:54;;;;;;;3.10;1.92;;;31.40;50.30;;;;;;6335666;22;20029;-82
2022/06/18 11:09:44;;;;;;;2.15;1.60;;;31.50;46.30;;;;;;6335002;22;20302;-82
2022/06/18 11:12:23;;;;;;;;;;;31.60;48.30;;;;;;6319438;22;20043;-83
2022/06/18 11:14:49;;;;;;;1.20;1.10;;;31.60;48.60;;;;;;6336499;22;19909;-84
2022/06/18 11:17:43;;;;;;;2.58;2.05;;;31.80;49.10;;;;;;6336146;22;20070;-83
2022/06/18 11:20:14;;;;;;;3.05;1.95;;;31.90;48.00;;;;;;6329614;22;20059;-83
2022/06/18 11:22:41;;;;;;;1.95;1.42;;;32.10;49.60;;;;;;6336377;22;20563;-83
2022/06/18 11:25:25;;;;;;;3.17;1.77;;;32.10;48.20;;;;;;6308427;22;20397;-83
2022/06/18 11:27:55;;;;;;;2.80;1.55;;;32.30;48.00;;;;;;6337078;22;20144;-84
2022/06/18 11:30:42;;;;;;;2.75;1.75;;;32.50;47.40;;;;;;6336492;22;20030;-83
2022/06/18 11:33:21;;;;;;;2.70;1.45;;;32.80;47.60;;;;;;6308647;22;20034;-81
2022/06/18 11:35:50;;;;;;;4.72;1.83;;;33.20;46.20;;;;;;6335592;22;20034;-81
2022/06/18 11:38:32;;;;;;;1.80;1.70;;;33.50;45.70;;;;;;6334526;22;20003;-80
2022/06/18 11:41:24;;;;;;;1.95;1.60;;;33.80;46.60;;;;;;6308202;22;19999;-81
2022/06/18 11:43:59;;;;;;;2.30;1.50;;;34.20;46.00;;;;;;6318362;22;20429;-80
2022/06/18 11:46:29;;;;;;;3.50;1.80;;;34.50;45.00;;;;;;6335774;22;20009;-80
2022/06/18 11:49:04;;;;;;;2.08;1.52;;;34.70;44.60;;;;;;6334924;22;20027;-83
2022/06/18 11:51:46;;;;;;;2.38;1.33;;;35.00;44.20;;;;;;6335470;22;20445;-83
2022/06/18 11:54:34;;;;;;;2.88;1.65;;;35.20;42.70;;;;;;6336596;22;20010;-84
2022/06/18 11:57:18;;;;;;;2.25;1.40;;;35.40;42.30;;;;;;6337540;22;20002;-84
2022/06/18 11:59:50;;;;;;;2.00;1.20;;;35.50;40.90;;;;;;6339211;22;20037;-82
2022/06/18 12:02:19;;;;;;;2.35;1.77;;;35.60;41.80;;;;;;6336161;22;20429;-83
2022/06/18 12:04:54;;;;;;;2.53;1.60;;;35.80;40.90;;;;;;6336037;22;20006;-83
2022/06/18 12:07:32;;;;;;;2.40;1.60;;;35.90;40.90;;;;;;6335342;22;20030;-83
2022/06/18 12:09:57;;;;;;;2.00;1.80;;;35.90;40.40;;;;;;6335692;22;20009;-83
2022/06/18 12:12:43;;;;;;;4.05;1.90;;;36.10;40.30;;;;;;6335678;22;20003;-83
2022/06/18 12:15:29;;;;;;;3.60;1.63;;;36.10;38.10;;;;;;6334970;22;20062;-83
2022/06/18 12:17:59;;;;;;;2.58;1.67;;;36.20;39.20;;;;;;6335514;22;20124;-83
2022/06/18 12:20:39;;;;;;;62.22;57.03;;;36.30;39.10;;;;;;6334751;22;20003;-83
2022/06/18 12:23:37;;;;;;;7.82;7.03;;;36.40;38.80;;;;;;6328582;22;20395;-83
2022/06/18 12:26:27;;;;;;;3.60;2.13;;;36.50;39.00;;;;;;6299948;22;20022;-83
2022/06/18 12:29:22;;;;;;;2.20;1.55;;;36.40;37.10;;;;;;6338267;22;19995;-83
2022/06/18 12:32:06;;;;;;;4.05;1.85;;;36.40;37.90;;;;;;6338585;22;20005;-83
2022/06/18 12:34:53;;;;;;;2.88;1.85;;;36.40;37.30;;;;;;6337728;22;20006;-83
2022/06/18 12:37:53;;;;;;;2.20;1.23;;;36.50;36.80;;;;;;6339091;22;20025;-83
2022/06/18 12:40:41;;;;;;;2.08;1.50;;;36.50;37.50;;;;;;6329708;22;20009;-83
2022/06/18 12:43:55;;;;;;;2.67;1.60;;;36.80;37.50;;;;;;6338499;22;19999;-83
2022/06/18 12:46:38;;;;;;;2.00;1.65;;;36.90;35.50;;;;;;6221618;22;20013;-83
2022/06/18 12:49:29;;;;;;;1.80;1.50;;;36.90;36.30;;;;;;6338272;22;20018;-83
2022/06/18 12:52:15;;;;;;;2.45;1.45;;;36.90;35.90;;;;;;6264299;22;20003;-83
2022/06/18 12:55:02;;;;;;;2.65;1.83;;;36.90;35.90;;;;;;6311033;22;20045;-81
2022/06/18 12:57:52;;;;;;;4.50;1.73;;;36.80;36.00;;;;;;6338430;22;20428;-82
2022/06/18 13:00:47;;;;;;;1.77;1.50;;;36.70;35.90;;;;;;6332517;22;20048;-82
2022/06/18 13:03:28;;;;;;;2.20;1.50;;;36.70;36.30;;;;;;6309397;22;20390;-82
2022/06/18 13:06:21;;;;;;;2.75;1.65;;;36.80;35.50;;;;;;6337035;22;20010;-82
2022/06/18 13:09:05;;;;;;;2.60;1.85;;;36.60;36.40;;;;;;6311513;22;20010;-81
2022/06/18 13:11:33;;;;;;;2.08;1.55;;;36.60;36.90;;;;;;6337968;22;20010;-81
2022/06/18 13:14:23;;;;;;;2.47;1.50;;;36.60;37.00;;;;;;6338783;22;20006;-82
2022/06/18 13:16:58;;;;;;;2.13;1.60;;;36.70;36.10;;;;;;6338469;22;20463;-82
2022/06/18 13:19:34;;;;;;;2.60;1.85;;;36.80;35.30;;;;;;6338234;22;20003;-81
2022/06/18 13:22:01;;;;;;;2.42;1.70;;;36.60;34.90;;;;;;6338942;22;20078;-81
2022/06/18 13:29:59;;;;;;;2.53;1.67;;;36.40;35.40;;;;;;6338111;22;20063;-80
2022/06/18 13:32:51;;;;;;;2.63;1.80;;;36.50;35.90;;;;;;6311257;22;20132;-81
2022/06/18 13:35:21;;;;;;;2.05;1.38;;;36.60;35.30;;;;;;6312757;22;20007;-81